Portada
METAR-TAF:

METAR-TAF

Aeroports :

Aeroport de Tan Tan

Tan-Tan, Marroc

latitud: 28-26-54N, longitud: 11-09-41W, altitud: 199 m

Observació

L'informe es va fer fa 16 minuts, a les 13:00 UTC
Vent 6 kt del Nord
Temperatura 24°C
Humitat 47%
Pressió 1011 hPa
Visibilitat 10 km o més
Escasses núvols a una alçada de 1600 ft
Cel ennuvolat a una alçada de 20000 ft

METAR: GMAT 301300Z 36006KT 9999 FEW016 BKN200 24/12 Q1011 NOSIG

Hora: 14:16 (13:16 UTC)


TAF: manca

Observacions i pronòstics meteorològics de més de 4000 aeroports (METAR i TAF).

Les estacions disponibles són els punts grocs i vermells al mapa.

Posi el ratolí al punt desitjat per veure el nom de l'estació.

Feu clic per veure les observacions i els pronòstics meteorològics.

Per canviar el mapa: feu clic els botons verds amb una creu de color negre per apropar; al botó verd amb un guió per allunyar la imatge; o en les fletxes verdes per a mapes adjacents.


METAR-TAF: